createdAt,value
2023-03-28T00:02:10.538Z,79.40
2023-03-28T00:07:14.886Z,79.40
2023-03-28T00:12:17.848Z,79.50
2023-03-28T00:17:20.896Z,79.90
2023-03-28T00:22:24.184Z,79.60
2023-03-28T00:27:27.179Z,79.90
2023-03-28T00:32:30.160Z,80.30
2023-03-28T00:37:34.398Z,80.40
2023-03-28T00:42:42.952Z,80.90
2023-03-28T00:48:01.995Z,81.50
2023-03-28T00:53:23.582Z,81.80
2023-03-28T00:58:32.408Z,81.70
2023-03-28T01:03:37.607Z,82.00
2023-03-28T01:08:44.806Z,82.00
2023-03-28T01:13:53.115Z,82.40
2023-03-28T01:19:02.134Z,82.80
2023-03-28T01:24:30.068Z,83.00
2023-03-28T01:30:15.412Z,83.80
2023-03-28T01:35:44.634Z,83.70
2023-03-28T01:41:08.367Z,84.20
2023-03-28T01:46:39.386Z,84.80
2023-03-28T01:52:13.050Z,85.50
2023-03-28T01:57:51.416Z,85.50
2023-03-28T02:03:11.676Z,86.40
2023-03-28T02:08:17.446Z,86.90
2023-03-28T02:13:40.368Z,87.70
2023-03-28T02:18:51.029Z,88.90
2023-03-28T02:23:56.142Z,89.70
2023-03-28T02:29:00.750Z,90.50
2023-03-28T02:34:04.013Z,90.80
2023-03-28T02:40:07.609Z,91.10
2023-03-28T02:46:08.941Z,91.50
2023-03-28T02:51:34.778Z,92.00
2023-03-28T02:57:11.619Z,92.40
2023-03-28T03:02:21.526Z,92.60
2023-03-28T03:07:25.228Z,92.80
2023-03-28T03:12:28.208Z,93.20
2023-03-28T03:17:31.594Z,93.50
2023-03-28T03:22:36.442Z,93.90
2023-03-28T03:27:40.977Z,94.30
2023-03-28T03:32:45.292Z,94.50
2023-03-28T03:37:48.803Z,94.90
2023-03-28T03:42:51.880Z,95.20
2023-03-28T03:47:54.851Z,95.70
2023-03-28T03:52:58.684Z,95.80
2023-03-28T03:58:03.162Z,96.20
2023-03-28T04:03:06.431Z,96.70
2023-03-28T04:08:09.577Z,96.90
2023-03-28T04:13:12.720Z,97.30
2023-03-28T04:18:20.472Z,97.60
2023-03-28T04:23:26.572Z,97.70
2023-03-28T04:28:29.599Z,98.10
2023-03-28T04:33:33.817Z,98.70
2023-03-28T04:38:37.283Z,98.80
2023-03-28T04:43:40.287Z,98.80
2023-03-28T04:48:43.281Z,99.20
2023-03-28T04:53:46.266Z,99.30
2023-03-28T04:58:49.203Z,99.00
2023-03-28T05:03:52.188Z,98.90
2023-03-28T05:08:55.773Z,98.50
2023-03-28T05:13:58.671Z,98.20
2023-03-28T05:19:01.796Z,98.20
2023-03-28T05:24:05.399Z,98.20
2023-03-28T05:29:08.313Z,98.30
2023-03-28T05:34:11.298Z,98.10
2023-03-28T05:39:14.906Z,98.10
2023-03-28T05:44:18.908Z,98.00
2023-03-28T05:49:22.604Z,97.90
2023-03-28T05:54:25.659Z,97.80
2023-03-28T05:59:28.571Z,97.40
2023-03-28T06:04:31.637Z,97.40
2023-03-28T06:09:35.215Z,97.40
2023-03-28T06:14:38.222Z,96.70
2023-03-28T06:19:41.377Z,96.40
2023-03-28T06:24:44.380Z,95.80
2023-03-28T06:29:47.304Z,95.80
2023-03-28T06:34:50.817Z,95.30
2023-03-28T06:39:54.308Z,95.50
2023-03-28T06:44:57.343Z,95.00
2023-03-28T06:50:00.302Z,95.30
2023-03-28T06:55:04.147Z,94.60
2023-03-28T07:00:08.545Z,94.80
2023-03-28T07:05:11.599Z,95.00
2023-03-28T07:10:14.563Z,94.80
2023-03-28T07:15:19.435Z,94.70
2023-03-28T07:20:23.419Z,94.80
2023-03-28T07:25:26.913Z,93.50
2023-03-28T07:30:29.794Z,93.80
2023-03-28T07:35:32.893Z,93.20
2023-03-28T07:40:36.293Z,92.80
2023-03-28T07:45:40.026Z,92.90
2023-03-28T07:50:43.221Z,92.30
2023-03-28T07:55:54.541Z,92.30
2023-03-28T08:01:08.739Z,91.40
2023-03-28T08:06:28.596Z,90.80
2023-03-28T08:11:36.477Z,90.60
2023-03-28T08:16:40.545Z,90.00
2023-03-28T08:21:43.815Z,88.20
2023-03-28T08:26:48.742Z,87.20
2023-03-28T08:31:51.864Z,85.50
2023-03-28T08:36:54.927Z,84.50
2023-03-28T08:42:16.330Z,80.80
2023-03-28T08:47:30.918Z,78.30
2023-03-28T08:52:34.883Z,77.50
2023-03-28T08:57:41.094Z,80.70
2023-03-28T09:02:44.626Z,79.20
2023-03-28T09:08:01.592Z,75.70
2023-03-28T09:13:40.843Z,74.60
2023-03-28T09:18:56.671Z,71.90
2023-03-28T09:24:26.228Z,68.80
2023-03-28T09:29:32.413Z,64.50
2023-03-28T09:34:44.259Z,62.10
2023-03-28T09:39:52.297Z,60.10
2023-03-28T09:45:19.776Z,58.60
2023-03-28T09:50:23.026Z,58.50
2023-03-28T09:55:30.240Z,60.50
2023-03-28T10:00:50.880Z,60.50
2023-03-28T10:05:53.850Z,60.90
2023-03-28T10:11:07.049Z,59.40
2023-03-28T10:16:25.942Z,58.90
2023-03-28T10:21:32.444Z,58.80
2023-03-28T10:26:35.865Z,58.80
2023-03-28T10:31:39.770Z,58.60
2023-03-28T10:36:44.066Z,60.80
2023-03-28T10:42:01.866Z,63.00
2023-03-28T10:47:18.663Z,65.50
2023-03-28T10:52:39.874Z,67.10
2023-03-28T10:58:09.909Z,61.50
2023-03-28T11:03:23.933Z,56.00
2023-03-28T11:09:31.835Z,56.90
2023-03-28T11:15:05.862Z,52.90
2023-03-28T11:20:51.864Z,52.90
2023-03-28T11:26:03.824Z,54.10
2023-03-28T11:31:17.470Z,54.40
2023-03-28T11:36:38.982Z,53.80
2023-03-28T11:41:44.453Z,49.90
2023-03-28T11:47:08.863Z,45.00
2023-03-28T11:52:34.947Z,46.40
2023-03-28T11:58:00.885Z,44.60
2023-03-28T12:03:30.467Z,44.90
2023-03-28T12:08:51.976Z,44.20
2023-03-28T12:14:26.447Z,44.50
2023-03-28T12:19:39.496Z,41.70
2023-03-28T12:25:06.222Z,43.20
2023-03-28T12:30:36.246Z,42.60
2023-03-28T12:35:46.891Z,42.90
2023-03-28T12:41:07.295Z,41.60
2023-03-28T12:46:18.455Z,40.40
2023-03-28T12:51:38.989Z,39.60
2023-03-28T12:57:04.110Z,40.50
2023-03-28T13:02:19.494Z,40.30
2023-03-28T13:07:47.441Z,40.70
2023-03-28T13:13:59.279Z,40.50
2023-03-28T13:19:17.159Z,41.90
2023-03-28T13:24:41.881Z,43.00
2023-03-28T13:29:51.720Z,41.40
2023-03-28T13:34:59.956Z,41.80
2023-03-28T13:40:05.632Z,52.00
2023-03-28T13:45:23.506Z,53.50
2023-03-28T13:50:32.743Z,54.70
2023-03-28T13:55:36.075Z,55.40
2023-03-28T14:00:39.598Z,56.00
2023-03-28T14:05:45.839Z,54.80
2023-03-28T14:10:52.236Z,53.00
2023-03-28T14:15:56.042Z,52.20
2023-03-28T14:21:00.617Z,50.60
2023-03-28T14:26:18.410Z,51.50
2023-03-28T14:31:38.487Z,52.30
2023-03-28T14:37:18.698Z,49.10
2023-03-28T14:42:23.960Z,45.80
2023-03-28T14:47:33.376Z,45.70
2023-03-28T14:52:40.944Z,44.90
2023-03-28T14:57:46.408Z,45.80
2023-03-28T15:02:52.371Z,47.30
2023-03-28T15:08:02.481Z,49.00
2023-03-28T15:13:23.439Z,48.40
2023-03-28T15:18:34.150Z,48.70
2023-03-28T15:23:56.913Z,49.30
2023-03-28T15:29:01.009Z,47.50
2023-03-28T15:34:11.371Z,45.80
2023-03-28T15:39:25.698Z,46.20
2023-03-28T15:44:38.588Z,44.80
2023-03-28T15:49:41.606Z,46.10
2023-03-28T15:54:54.310Z,48.40
2023-03-28T16:00:00.880Z,45.70
2023-03-28T16:05:34.925Z,46.10
2023-03-28T16:10:39.985Z,47.90
2023-03-28T16:15:43.698Z,48.90
2023-03-28T16:20:47.054Z,49.60
2023-03-28T16:25:50.346Z,50.50
2023-03-28T16:30:53.331Z,51.70
2023-03-28T16:35:56.503Z,52.50
2023-03-28T16:40:59.702Z,53.50
2023-03-28T16:46:03.017Z,54.80
2023-03-28T16:51:06.978Z,55.20
2023-03-28T16:56:15.354Z,56.30
2023-03-28T17:01:21.475Z,57.50
2023-03-28T17:06:25.042Z,61.30
2023-03-28T17:11:28.366Z,62.10
2023-03-28T17:16:31.544Z,62.10
2023-03-28T17:21:35.069Z,62.40
2023-03-28T17:26:38.176Z,63.10
2023-03-28T17:31:40.996Z,62.70
2023-03-28T17:36:44.480Z,62.60
2023-03-28T17:41:48.099Z,63.20
2023-03-28T17:46:51.963Z,63.40
2023-03-28T17:51:56.736Z,64.30
2023-03-28T17:57:00.325Z,64.20
2023-03-28T18:02:04.198Z,64.90
2023-03-28T18:07:16.371Z,65.60
2023-03-28T18:12:21.469Z,65.50
2023-03-28T18:17:24.604Z,65.60
2023-03-28T18:22:28.280Z,66.20
2023-03-28T18:27:31.507Z,66.50
2023-03-28T18:32:36.616Z,66.40
2023-03-28T18:37:39.797Z,65.90
2023-03-28T18:42:43.083Z,65.40
2023-03-28T18:47:46.699Z,65.10
2023-03-28T18:52:49.844Z,64.20
2023-03-28T18:57:53.109Z,63.50
2023-03-28T19:02:56.496Z,63.40
2023-03-28T19:07:59.739Z,63.10
2023-03-28T19:13:03.053Z,63.20
2023-03-28T19:18:06.961Z,63.30
2023-03-28T19:23:10.361Z,63.20
2023-03-28T19:28:13.299Z,63.20
2023-03-28T19:33:16.435Z,63.20
2023-03-28T19:38:19.987Z,62.90
2023-03-28T19:43:24.393Z,62.90
2023-03-28T19:48:27.671Z,63.10
2023-03-28T19:53:31.312Z,63.10
2023-03-28T19:58:35.057Z,63.40
2023-03-28T20:03:38.503Z,63.90
2023-03-28T20:08:42.851Z,64.00
2023-03-28T20:13:47.188Z,64.80
2023-03-28T20:18:50.176Z,65.70
2023-03-28T20:23:54.519Z,64.70
2023-03-28T20:28:59.644Z,64.20
2023-03-28T20:34:03.186Z,64.20
2023-03-28T20:39:06.221Z,64.20
2023-03-28T20:44:09.493Z,64.20
2023-03-28T20:49:12.816Z,63.90
2023-03-28T20:54:16.255Z,63.80
2023-03-28T20:59:20.158Z,64.10
2023-03-28T21:04:23.871Z,64.70
2023-03-28T21:09:27.080Z,64.50
2023-03-28T21:14:30.523Z,64.60
2023-03-28T21:19:34.569Z,65.00
2023-03-28T21:24:37.545Z,65.30
2023-03-28T21:29:40.543Z,66.10
2023-03-28T21:34:44.825Z,65.80
2023-03-28T21:39:47.967Z,66.10
2023-03-28T21:44:52.054Z,66.40
2023-03-28T21:49:55.112Z,67.50
2023-03-28T21:54:58.096Z,67.90
2023-03-28T22:00:01.626Z,68.70
2023-03-28T22:05:15.519Z,68.70
2023-03-28T22:10:26.787Z,68.50
2023-03-28T22:15:31.671Z,68.50
2023-03-28T22:20:36.055Z,68.40
2023-03-28T22:25:39.489Z,68.20
2023-03-28T22:30:42.956Z,67.40
2023-03-28T22:35:49.491Z,68.00
2023-03-28T22:40:52.491Z,68.70
2023-03-28T22:45:56.648Z,67.80
2023-03-28T22:51:01.656Z,67.90
2023-03-28T22:56:06.628Z,67.60
2023-03-28T23:01:09.603Z,67.80
2023-03-28T23:06:13.234Z,67.70
2023-03-28T23:11:16.222Z,68.90
2023-03-28T23:16:19.249Z,68.60
2023-03-28T23:21:23.054Z,68.60
2023-03-28T23:26:26.504Z,68.80
2023-03-28T23:31:29.713Z,69.40
2023-03-28T23:36:32.877Z,69.40
2023-03-28T23:41:35.843Z,69.40
2023-03-28T23:46:39.634Z,69.50
2023-03-28T23:51:42.908Z,69.60
2023-03-28T23:56:46.358Z,69.80
